sensor_id;sensor_type;location;lat;lon;timestamp;pressure;altitude;pressure_sealevel;temperature;humidity
53932;BME280;39844;52.496;13.482;2024-03-08T00:01:19;102229.13;;;1.87;80.99
53932;BME280;39844;52.496;13.482;2024-03-08T00:03:44;102234.19;;;1.86;81.21
53932;BME280;39844;52.496;13.482;2024-03-08T00:06:10;102234.84;;;1.82;81.21
53932;BME280;39844;52.496;13.482;2024-03-08T00:08:35;102228.53;;;1.77;81.00
53932;BME280;39844;52.496;13.482;2024-03-08T00:11:00;102229.25;;;1.74;81.30
53932;BME280;39844;52.496;13.482;2024-03-08T00:13:26;102242.13;;;1.73;81.59
53932;BME280;39844;52.496;13.482;2024-03-08T00:15:51;102230.69;;;1.69;82.11
53932;BME280;39844;52.496;13.482;2024-03-08T00:18:16;102242.66;;;1.67;82.17
53932;BME280;39844;52.496;13.482;2024-03-08T00:20:42;102228.66;;;1.64;82.58
53932;BME280;39844;52.496;13.482;2024-03-08T00:23:07;102228.47;;;1.61;82.90
53932;BME280;39844;52.496;13.482;2024-03-08T00:25:33;102226.59;;;1.58;82.83
53932;BME280;39844;52.496;13.482;2024-03-08T00:27:58;102225.56;;;1.55;83.28
53932;BME280;39844;52.496;13.482;2024-03-08T00:30:23;102233.16;;;1.52;83.58
53932;BME280;39844;52.496;13.482;2024-03-08T00:32:49;102233.94;;;1.51;83.67
53932;BME280;39844;52.496;13.482;2024-03-08T00:35:14;102232.16;;;1.50;83.78
53932;BME280;39844;52.496;13.482;2024-03-08T00:37:40;102233.88;;;1.49;83.74
53932;BME280;39844;52.496;13.482;2024-03-08T00:40:06;102226.81;;;1.47;83.05
53932;BME280;39844;52.496;13.482;2024-03-08T00:42:31;102223.41;;;1.48;83.31
53932;BME280;39844;52.496;13.482;2024-03-08T00:44:56;102220.81;;;1.48;83.59
53932;BME280;39844;52.496;13.482;2024-03-08T00:47:22;102220.81;;;1.48;83.70
53932;BME280;39844;52.496;13.482;2024-03-08T00:49:47;102221.66;;;1.47;84.20
53932;BME280;39844;52.496;13.482;2024-03-08T00:52:12;102227.59;;;1.46;84.30
53932;BME280;39844;52.496;13.482;2024-03-08T00:54:37;102224.13;;;1.45;84.21
53932;BME280;39844;52.496;13.482;2024-03-08T00:57:03;102218.88;;;1.44;84.36
53932;BME280;39844;52.496;13.482;2024-03-08T00:59:29;102217.91;;;1.42;84.36
53932;BME280;39844;52.496;13.482;2024-03-08T01:01:54;102222.13;;;1.40;84.34
53932;BME280;39844;52.496;13.482;2024-03-08T01:04:20;102209.00;;;1.37;84.43
53932;BME280;39844;52.496;13.482;2024-03-08T01:06:45;102212.31;;;1.34;84.19
53932;BME280;39844;52.496;13.482;2024-03-08T01:09:11;102205.44;;;1.35;84.10
53932;BME280;39844;52.496;13.482;2024-03-08T01:11:36;102201.06;;;1.34;84.72
53932;BME280;39844;52.496;13.482;2024-03-08T01:14:01;102195.00;;;1.33;84.65
53932;BME280;39844;52.496;13.482;2024-03-08T01:16:26;102192.41;;;1.33;84.94
53932;BME280;39844;52.496;13.482;2024-03-08T01:18:52;102194.91;;;1.32;84.43
53932;BME280;39844;52.496;13.482;2024-03-08T01:21:17;102195.72;;;1.31;85.17
53932;BME280;39844;52.496;13.482;2024-03-08T01:23:42;102186.19;;;1.30;85.22
53932;BME280;39844;52.496;13.482;2024-03-08T01:26:08;102179.16;;;1.27;84.62
53932;BME280;39844;52.496;13.482;2024-03-08T01:28:33;102177.28;;;1.24;84.75
53932;BME280;39844;52.496;13.482;2024-03-08T01:30:58;102179.88;;;1.24;85.09
53932;BME280;39844;52.496;13.482;2024-03-08T01:33:25;102177.28;;;1.24;85.26
53932;BME280;39844;52.496;13.482;2024-03-08T01:35:54;102175.41;;;1.22;85.39
53932;BME280;39844;52.496;13.482;2024-03-08T01:38:20;102176.13;;;1.19;85.47
53932;BME280;39844;52.496;13.482;2024-03-08T01:40:45;102170.78;;;1.16;85.41
53932;BME280;39844;52.496;13.482;2024-03-08T01:43:21;102172.34;;;1.14;85.67
53932;BME280;39844;52.496;13.482;2024-03-08T01:45:47;102165.31;;;1.12;85.92
53932;BME280;39844;52.496;13.482;2024-03-08T01:48:14;102162.66;;;1.10;86.31
53932;BME280;39844;52.496;13.482;2024-03-08T01:50:40;102159.09;;;1.08;86.65
53932;BME280;39844;52.496;13.482;2024-03-08T01:53:07;102164.16;;;1.07;86.86
53932;BME280;39844;52.496;13.482;2024-03-08T01:55:33;102148.41;;;1.02;86.72
53932;BME280;39844;52.496;13.482;2024-03-08T01:57:59;102147.41;;;1.00;87.10
53932;BME280;39844;52.496;13.482;2024-03-08T02:00:25;102151.69;;;1.00;87.57
53932;BME280;39844;52.496;13.482;2024-03-08T02:02:53;102152.53;;;0.99;87.47
53932;BME280;39844;52.496;13.482;2024-03-08T02:05:20;102146.44;;;0.98;87.77
53932;BME280;39844;52.496;13.482;2024-03-08T02:07:45;102147.25;;;0.97;87.55
53932;BME280;39844;52.496;13.482;2024-03-08T02:10:10;102144.47;;;0.94;87.52
53932;BME280;39844;52.496;13.482;2024-03-08T02:12:36;102138.25;;;0.91;87.28
53932;BME280;39844;52.496;13.482;2024-03-08T02:15:01;102138.25;;;0.91;87.32
53932;BME280;39844;52.496;13.482;2024-03-08T02:17:26;102139.94;;;0.90;86.87
53932;BME280;39844;52.496;13.482;2024-03-08T02:19:52;102136.28;;;0.87;86.66
53932;BME280;39844;52.496;13.482;2024-03-08T02:22:17;102142.34;;;0.87;86.98
53932;BME280;39844;52.496;13.482;2024-03-08T02:24:48;102127.56;;;0.85;87.11
53932;BME280;39844;52.496;13.482;2024-03-08T02:27:15;102133.63;;;0.85;87.46
53932;BME280;39844;52.496;13.482;2024-03-08T02:29:42;102134.28;;;0.81;87.09
53932;BME280;39844;52.496;13.482;2024-03-08T02:32:07;102129.88;;;0.80;87.97
53932;BME280;39844;52.496;13.482;2024-03-08T02:34:32;102135.78;;;0.78;87.82
53932;BME280;39844;52.496;13.482;2024-03-08T02:36:58;102130.59;;;0.78;88.22
53932;BME280;39844;52.496;13.482;2024-03-08T02:39:23;102129.63;;;0.76;88.06
53932;BME280;39844;52.496;13.482;2024-03-08T02:41:48;102126.88;;;0.73;88.00
53932;BME280;39844;52.496;13.482;2024-03-08T02:44:14;102133.81;;;0.74;88.33
53932;BME280;39844;52.496;13.482;2024-03-08T02:46:39;102131.31;;;0.75;88.13
53932;BME280;39844;52.496;13.482;2024-03-08T02:49:04;102122.06;;;0.79;87.42
53932;BME280;39844;52.496;13.482;2024-03-08T02:51:30;102121.34;;;0.81;87.43
53932;BME280;39844;52.496;13.482;2024-03-08T02:53:55;102117.16;;;0.83;87.15
53932;BME280;39844;52.496;13.482;2024-03-08T02:56:20;102111.16;;;0.84;87.01
53932;BME280;39844;52.496;13.482;2024-03-08T02:58:45;102117.22;;;0.85;86.98
53932;BME280;39844;52.496;13.482;2024-03-08T03:01:11;102116.44;;;0.86;86.91
53932;BME280;39844;52.496;13.482;2024-03-08T03:03:36;102116.50;;;0.87;86.81
53932;BME280;39844;52.496;13.482;2024-03-08T03:06:01;102109.72;;;0.89;86.64
53932;BME280;39844;52.496;13.482;2024-03-08T03:08:26;102113.13;;;0.88;86.56
53932;BME280;39844;52.496;13.482;2024-03-08T03:10:52;102108.75;;;0.87;86.51
53932;BME280;39844;52.496;13.482;2024-03-08T03:13:17;102109.56;;;0.86;86.31
53932;BME280;39844;52.496;13.482;2024-03-08T03:15:42;102109.56;;;0.86;86.50
53932;BME280;39844;52.496;13.482;2024-03-08T03:18:08;102105.28;;;0.87;86.74
53932;BME280;39844;52.496;13.482;2024-03-08T03:20:33;102107.00;;;0.86;86.39
53932;BME280;39844;52.496;13.482;2024-03-08T03:22:59;102108.75;;;0.87;86.82
53932;BME280;39844;52.496;13.482;2024-03-08T03:25:24;102110.44;;;0.87;86.82
53932;BME280;39844;52.496;13.482;2024-03-08T03:27:49;102107.78;;;0.85;86.52
53932;BME280;39844;52.496;13.482;2024-03-08T03:30:15;102107.00;;;0.86;86.65
53932;BME280;39844;52.496;13.482;2024-03-08T03:32:40;102107.78;;;0.85;86.65
53932;BME280;39844;52.496;13.482;2024-03-08T03:35:06;102099.13;;;0.85;87.08
53932;BME280;39844;52.496;13.482;2024-03-08T03:37:31;102106.88;;;0.85;86.74
53932;BME280;39844;52.496;13.482;2024-03-08T03:39:56;102094.06;;;0.86;86.80
53932;BME280;39844;52.496;13.482;2024-03-08T03:42:22;102092.28;;;0.85;86.76
53932;BME280;39844;52.496;13.482;2024-03-08T03:44:48;102094.06;;;0.86;86.75
53932;BME280;39844;52.496;13.482;2024-03-08T03:47:16;102102.63;;;0.85;86.98
53932;BME280;39844;52.496;13.482;2024-03-08T03:49:42;102097.38;;;0.84;87.09
53932;BME280;39844;52.496;13.482;2024-03-08T03:52:07;102091.31;;;0.83;87.02
53932;BME280;39844;52.496;13.482;2024-03-08T03:54:32;102099.06;;;0.83;86.91
53932;BME280;39844;52.496;13.482;2024-03-08T03:56:58;102094.69;;;0.82;87.10
53932;BME280;39844;52.496;13.482;2024-03-08T03:59:23;102098.88;;;0.80;87.24
53932;BME280;39844;52.496;13.482;2024-03-08T04:01:48;102098.81;;;0.79;87.32
53932;BME280;39844;52.496;13.482;2024-03-08T04:04:14;102093.53;;;0.77;87.51
53932;BME280;39844;52.496;13.482;2024-03-08T04:06:39;102102.09;;;0.76;87.70
53932;BME280;39844;52.496;13.482;2024-03-08T04:09:04;102102.09;;;0.76;87.83
53932;BME280;39844;52.496;13.482;2024-03-08T04:11:30;102096.94;;;0.76;88.00
53932;BME280;39844;52.496;13.482;2024-03-08T04:13:55;102102.09;;;0.76;88.09
53932;BME280;39844;52.496;13.482;2024-03-08T04:16:20;102089.06;;;0.75;88.33
53932;BME280;39844;52.496;13.482;2024-03-08T04:18:46;102107.09;;;0.73;88.44
53932;BME280;39844;52.496;13.482;2024-03-08T04:21:11;102100.13;;;0.72;88.58
53932;BME280;39844;52.496;13.482;2024-03-08T04:23:36;102092.38;;;0.72;88.54
53932;BME280;39844;52.496;13.482;2024-03-08T04:26:05;102094.00;;;0.70;88.89
53932;BME280;39844;52.496;13.482;2024-03-08T04:28:30;102100.84;;;0.70;88.57
53932;BME280;39844;52.496;13.482;2024-03-08T04:30:55;102100.59;;;0.65;88.78
53932;BME280;39844;52.496;13.482;2024-03-08T04:33:20;102106.53;;;0.64;89.12
53932;BME280;39844;52.496;13.482;2024-03-08T04:35:46;102107.25;;;0.61;89.30
53932;BME280;39844;52.496;13.482;2024-03-08T04:38:11;102106.28;;;0.59;89.56
53932;BME280;39844;52.496;13.482;2024-03-08T04:40:36;102098.34;;;0.56;89.43
53932;BME280;39844;52.496;13.482;2024-03-08T04:43:02;102099.06;;;0.54;89.65
53932;BME280;39844;52.496;13.482;2024-03-08T04:45:27;102100.66;;;0.52;89.78
53932;BME280;39844;52.496;13.482;2024-03-08T04:47:53;102097.00;;;0.48;89.88
53932;BME280;39844;52.496;13.482;2024-03-08T04:50:18;102095.13;;;0.46;90.01
53932;BME280;39844;52.496;13.482;2024-03-08T04:52:43;102093.25;;;0.43;90.20
53932;BME280;39844;52.496;13.482;2024-03-08T04:55:09;102094.78;;;0.40;90.46
53932;BME280;39844;52.496;13.482;2024-03-08T04:57:36;102092.09;;;0.38;90.70
53932;BME280;39844;52.496;13.482;2024-03-08T05:00:03;102087.66;;;0.36;91.06
53932;BME280;39844;52.496;13.482;2024-03-08T05:02:28;102100.47;;;0.34;91.20
53932;BME280;39844;52.496;13.482;2024-03-08T05:04:53;102094.44;;;0.34;91.16
53932;BME280;39844;52.496;13.482;2024-03-08T05:07:19;102089.97;;;0.31;91.28
53932;BME280;39844;52.496;13.482;2024-03-08T05:09:44;102085.50;;;0.29;91.81
53932;BME280;39844;52.496;13.482;2024-03-08T05:12:09;102084.53;;;0.27;91.59
53932;BME280;39844;52.496;13.482;2024-03-08T05:14:34;102086.03;;;0.23;92.06
53932;BME280;39844;52.496;13.482;2024-03-08T05:17:00;102086.94;;;0.24;92.13
53932;BME280;39844;52.496;13.482;2024-03-08T05:19:25;102079.13;;;0.22;92.31
53932;BME280;39844;52.496;13.482;2024-03-08T05:21:50;102081.59;;;0.21;92.41
53932;BME280;39844;52.496;13.482;2024-03-08T05:24:16;102082.47;;;0.21;92.38
53932;BME280;39844;52.496;13.482;2024-03-08T05:26:42;102078.94;;;0.19;92.49
53932;BME280;39844;52.496;13.482;2024-03-08T05:29:08;102085.06;;;0.21;92.59
53932;BME280;39844;52.496;13.482;2024-03-08T05:31:41;102075.56;;;0.20;92.90
53932;BME280;39844;52.496;13.482;2024-03-08T05:34:08;102072.09;;;0.20;92.59
53932;BME280;39844;52.496;13.482;2024-03-08T05:36:33;102073.75;;;0.19;92.67
53932;BME280;39844;52.496;13.482;2024-03-08T05:38:58;102078.03;;;0.19;92.94
53932;BME280;39844;52.496;13.482;2024-03-08T05:41:24;102069.50;;;0.20;92.90
53932;BME280;39844;52.496;13.482;2024-03-08T05:43:49;102075.44;;;0.19;92.82
53932;BME280;39844;52.496;13.482;2024-03-08T05:46:15;102071.97;;;0.18;92.91
53932;BME280;39844;52.496;13.482;2024-03-08T05:48:40;102070.22;;;0.17;93.24
53932;BME280;39844;52.496;13.482;2024-03-08T05:51:06;102071.09;;;0.18;93.03
53932;BME280;39844;52.496;13.482;2024-03-08T05:53:31;102071.09;;;0.18;93.18
53932;BME280;39844;52.496;13.482;2024-03-08T05:55:57;102068.53;;;0.18;92.98
53932;BME280;39844;52.496;13.482;2024-03-08T05:58:23;102068.53;;;0.18;93.11
53932;BME280;39844;52.496;13.482;2024-03-08T06:00:48;102071.97;;;0.18;93.42
53932;BME280;39844;52.496;13.482;2024-03-08T06:03:13;102076.34;;;0.19;93.25
53932;BME280;39844;52.496;13.482;2024-03-08T06:05:39;102083.31;;;0.20;93.35
53932;BME280;39844;52.496;13.482;2024-03-08T06:08:04;102082.47;;;0.21;93.39
53932;BME280;39844;52.496;13.482;2024-03-08T06:10:30;102086.03;;;0.23;93.57
53932;BME280;39844;52.496;13.482;2024-03-08T06:12:55;102088.72;;;0.25;93.70
53932;BME280;39844;52.496;13.482;2024-03-08T06:15:20;102079.31;;;0.25;93.49
53932;BME280;39844;52.496;13.482;2024-03-08T06:17:46;102081.97;;;0.27;93.67
53932;BME280;39844;52.496;13.482;2024-03-08T06:20:11;102083.75;;;0.28;93.62
53932;BME280;39844;52.496;13.482;2024-03-08T06:22:40;102091.66;;;0.31;93.75
53932;BME280;39844;52.496;13.482;2024-03-08T06:25:05;102084.91;;;0.33;93.74
53932;BME280;39844;52.496;13.482;2024-03-08T06:27:31;102090.34;;;0.37;93.60
53932;BME280;39844;52.496;13.482;2024-03-08T06:29:58;102086.16;;;0.39;93.13
53932;BME280;39844;52.496;13.482;2024-03-08T06:32:23;102083.84;;;0.44;93.37
53932;BME280;39844;52.496;13.482;2024-03-08T06:34:48;102088.41;;;0.48;93.16
53932;BME280;39844;52.496;13.482;2024-03-08T06:37:14;102081.63;;;0.50;92.73
53932;BME280;39844;52.496;13.482;2024-03-08T06:39:39;102079.22;;;0.53;92.56
53932;BME280;39844;52.496;13.482;2024-03-08T06:42:04;102080.25;;;0.56;92.35
53932;BME280;39844;52.496;13.482;2024-03-08T06:44:30;102085.72;;;0.61;91.99
53932;BME280;39844;52.496;13.482;2024-03-08T06:46:55;102084.28;;;0.66;91.70
53932;BME280;39844;52.496;13.482;2024-03-08T06:49:20;102079.38;;;0.71;91.64
53932;BME280;39844;52.496;13.482;2024-03-08T06:51:46;102079.63;;;0.75;91.34
53932;BME280;39844;52.496;13.482;2024-03-08T06:54:11;102077.31;;;0.80;90.96
53932;BME280;39844;52.496;13.482;2024-03-08T06:56:36;102080.16;;;0.84;90.96
53932;BME280;39844;52.496;13.482;2024-03-08T06:59:01;102067.59;;;0.90;90.44
53932;BME280;39844;52.496;13.482;2024-03-08T07:01:27;102072.28;;;0.97;90.13
53932;BME280;39844;52.496;13.482;2024-03-08T07:03:52;102080.38;;;1.03;89.65
53932;BME280;39844;52.496;13.482;2024-03-08T07:06:18;102079.91;;;1.10;88.93
53932;BME280;39844;52.496;13.482;2024-03-08T07:08:43;102078.47;;;1.15;88.52
53932;BME280;39844;52.496;13.482;2024-03-08T07:11:08;102076.13;;;1.20;88.10
53932;BME280;39844;52.496;13.482;2024-03-08T07:13:34;102075.69;;;1.27;88.08
53932;BME280;39844;52.496;13.482;2024-03-08T07:15:59;102074.16;;;1.31;87.59
53932;BME280;39844;52.496;13.482;2024-03-08T07:18:24;102075.28;;;1.36;87.53
53932;BME280;39844;52.496;13.482;2024-03-08T07:20:50;102077.25;;;1.40;87.05
53932;BME280;39844;52.496;13.482;2024-03-08T07:23:15;102072.22;;;1.43;86.83
53932;BME280;39844;52.496;13.482;2024-03-08T07:25:40;102070.78;;;1.48;86.49
53932;BME280;39844;52.496;13.482;2024-03-08T07:28:05;102066.66;;;1.51;86.42
53932;BME280;39844;52.496;13.482;2024-03-08T07:30:31;102066.91;;;1.56;86.08
53932;BME280;39844;52.496;13.482;2024-03-08T07:32:56;102067.25;;;1.62;86.12
53932;BME280;39844;52.496;13.482;2024-03-08T07:35:21;102070.00;;;1.65;85.59
53932;BME280;39844;52.496;13.482;2024-03-08T07:37:47;102063.38;;;1.70;84.95
53932;BME280;39844;52.496;13.482;2024-03-08T07:40:12;102064.56;;;1.76;85.39
53932;BME280;39844;52.496;13.482;2024-03-08T07:42:37;102061.41;;;1.82;84.96
53932;BME280;39844;52.496;13.482;2024-03-08T07:45:03;102056.56;;;1.88;84.69
53932;BME280;39844;52.496;13.482;2024-03-08T07:47:31;102058.72;;;1.97;84.39
53932;BME280;39844;52.496;13.482;2024-03-08T07:49:56;102054.84;;;2.05;84.31
53932;BME280;39844;52.496;13.482;2024-03-08T07:52:21;102047.47;;;2.12;84.17
53932;BME280;39844;52.496;13.482;2024-03-08T07:54:46;102050.28;;;2.17;82.95
53932;BME280;39844;52.496;13.482;2024-03-08T07:57:12;102054.16;;;2.25;83.23
53932;BME280;39844;52.496;13.482;2024-03-08T07:59:37;102049.19;;;2.29;82.22
53932;BME280;39844;52.496;13.482;2024-03-08T08:02:02;102042.66;;;2.36;82.01
53932;BME280;39844;52.496;13.482;2024-03-08T08:04:28;102044.78;;;2.44;81.46
53932;BME280;39844;52.496;13.482;2024-03-08T08:06:53;102038.13;;;2.49;80.76
53932;BME280;39844;52.496;13.482;2024-03-08T08:09:18;102052.28;;;2.56;80.54
53932;BME280;39844;52.496;13.482;2024-03-08T08:11:44;102039.72;;;2.64;80.55
53932;BME280;39844;52.496;13.482;2024-03-08T08:14:09;102033.22;;;2.72;80.27
53932;BME280;39844;52.496;13.482;2024-03-08T08:16:35;102031.03;;;2.81;80.39
53932;BME280;39844;52.496;13.482;2024-03-08T08:19:01;102028.91;;;2.90;79.82
53932;BME280;39844;52.496;13.482;2024-03-08T08:21:26;102023.19;;;2.97;79.23
53932;BME280;39844;52.496;13.482;2024-03-08T08:23:51;102027.84;;;3.04;79.04
53932;BME280;39844;52.496;13.482;2024-03-08T08:26:17;102022.06;;;3.09;78.08
53932;BME280;39844;52.496;13.482;2024-03-08T08:28:42;102026.56;;;3.13;77.45
53932;BME280;39844;52.496;13.482;2024-03-08T08:31:07;102020.84;;;3.20;77.22
53932;BME280;39844;52.496;13.482;2024-03-08T08:33:32;102022.91;;;3.28;76.47
53932;BME280;39844;52.496;13.482;2024-03-08T08:35:58;102017.25;;;3.36;76.20
53932;BME280;39844;52.496;13.482;2024-03-08T08:38:23;102012.34;;;3.42;75.21
53932;BME280;39844;52.496;13.482;2024-03-08T08:40:48;102008.38;;;3.50;74.79
53932;BME280;39844;52.496;13.482;2024-03-08T08:43:14;102006.00;;;3.55;74.38
53932;BME280;39844;52.496;13.482;2024-03-08T08:45:39;102007.97;;;3.60;74.03
53932;BME280;39844;52.496;13.482;2024-03-08T08:48:05;102012.47;;;3.64;74.48
53932;BME280;39844;52.496;13.482;2024-03-08T08:50:31;102004.22;;;3.73;74.52
53932;BME280;39844;52.496;13.482;2024-03-08T08:52:56;101993.31;;;3.81;74.51
53932;BME280;39844;52.496;13.482;2024-03-08T08:55:22;101993.59;;;3.88;72.87
53932;BME280;39844;52.496;13.482;2024-03-08T08:57:47;101992.91;;;3.92;72.48
53932;BME280;39844;52.496;13.482;2024-03-08T09:00:13;101992.38;;;3.99;72.78
53932;BME280;39844;52.496;13.482;2024-03-08T09:02:38;101995.34;;;4.08;72.98
53932;BME280;39844;52.496;13.482;2024-03-08T09:05:04;101990.41;;;4.14;71.73
53932;BME280;39844;52.496;13.482;2024-03-08T09:07:29;101980.97;;;4.16;71.41
53932;BME280;39844;52.496;13.482;2024-03-08T09:09:55;101987.38;;;4.24;71.74
53932;BME280;39844;52.496;13.482;2024-03-08T09:12:20;101984.06;;;4.28;70.72
53932;BME280;39844;52.496;13.482;2024-03-08T09:14:45;101978.28;;;4.35;70.38
53932;BME280;39844;52.496;13.482;2024-03-08T09:17:10;101974.25;;;4.41;69.55
53932;BME280;39844;52.496;13.482;2024-03-08T09:19:36;101971.78;;;4.44;69.10
53932;BME280;39844;52.496;13.482;2024-03-08T09:22:01;101978.16;;;4.53;68.71
53932;BME280;39844;52.496;13.482;2024-03-08T09:24:27;101965.50;;;4.60;68.13
53932;BME280;39844;52.496;13.482;2024-03-08T09:26:52;101965.72;;;4.66;67.60
53932;BME280;39844;52.496;13.482;2024-03-08T09:29:17;101963.41;;;4.74;67.82
53932;BME280;39844;52.496;13.482;2024-03-08T09:31:43;101955.91;;;4.81;67.58
53932;BME280;39844;52.496;13.482;2024-03-08T09:34:08;101955.38;;;4.90;67.65
53932;BME280;39844;52.496;13.482;2024-03-08T09:36:34;101956.38;;;4.93;66.73
53932;BME280;39844;52.496;13.482;2024-03-08T09:38:59;101941.78;;;4.97;66.74
53932;BME280;39844;52.496;13.482;2024-03-08T09:41:24;101944.50;;;5.00;66.12
53932;BME280;39844;52.496;13.482;2024-03-08T09:43:50;101938.66;;;5.05;66.29
53932;BME280;39844;52.496;13.482;2024-03-08T09:46:16;101932.59;;;5.06;64.80
53932;BME280;39844;52.496;13.482;2024-03-08T09:48:42;101935.44;;;5.13;64.74
53932;BME280;39844;52.496;13.482;2024-03-08T09:51:08;101940.03;;;5.20;64.71
53932;BME280;39844;52.496;13.482;2024-03-08T09:53:34;101926.34;;;5.24;63.70
53932;BME280;39844;52.496;13.482;2024-03-08T09:56:00;101931.75;;;5.30;63.50
53932;BME280;39844;52.496;13.482;2024-03-08T09:58:25;101928.38;;;5.32;63.36
53932;BME280;39844;52.496;13.482;2024-03-08T10:00:50;101927.81;;;5.41;63.26
53932;BME280;39844;52.496;13.482;2024-03-08T10:03:16;101921.06;;;5.46;62.84
53932;BME280;39844;52.496;13.482;2024-03-08T10:05:41;101929.00;;;5.49;62.46
53932;BME280;39844;52.496;13.482;2024-03-08T10:08:07;101916.06;;;5.52;62.75
53932;BME280;39844;52.496;13.482;2024-03-08T10:10:36;101904.94;;;5.56;62.32
53932;BME280;39844;52.496;13.482;2024-03-08T10:13:01;101902.44;;;5.59;61.60
53932;BME280;39844;52.496;13.482;2024-03-08T10:15:30;101917.44;;;5.66;62.16
53932;BME280;39844;52.496;13.482;2024-03-08T10:17:55;101907.22;;;5.72;62.18
53932;BME280;39844;52.496;13.482;2024-03-08T10:20:21;101907.28;;;5.73;61.46
53932;BME280;39844;52.496;13.482;2024-03-08T10:22:47;101905.72;;;5.79;62.42
53932;BME280;39844;52.496;13.482;2024-03-08T10:25:13;101900.81;;;5.86;61.75
53932;BME280;39844;52.496;13.482;2024-03-08T10:27:41;101900.13;;;5.92;61.98
53932;BME280;39844;52.496;13.482;2024-03-08T10:30:11;101890.75;;;5.97;61.83
53932;BME280;39844;52.496;13.482;2024-03-08T10:32:37;101889.13;;;6.00;61.16
53932;BME280;39844;52.496;13.482;2024-03-08T10:35:03;101884.94;;;6.05;60.79
53932;BME280;39844;52.496;13.482;2024-03-08T10:37:29;101870.25;;;6.07;59.00
53932;BME280;39844;52.496;13.482;2024-03-08T10:40:02;101875.47;;;6.07;58.96
53932;BME280;39844;52.496;13.482;2024-03-08T10:42:29;101881.72;;;6.12;58.39
53932;BME280;39844;52.496;13.482;2024-03-08T10:45:19;101875.91;;;6.21;58.39
53932;BME280;39844;52.496;13.482;2024-03-08T10:47:49;101869.25;;;6.30;57.14
53932;BME280;39844;52.496;13.482;2024-03-08T10:50:19;101866.75;;;6.33;56.18
53932;BME280;39844;52.496;13.482;2024-03-08T10:52:45;101873.16;;;6.43;57.21
53932;BME280;39844;52.496;13.482;2024-03-08T10:55:12;101864.44;;;6.43;55.23
53932;BME280;39844;52.496;13.482;2024-03-08T10:57:39;101855.81;;;6.45;55.53
53932;BME280;39844;52.496;13.482;2024-03-08T11:00:06;101852.53;;;6.51;56.64
53932;BME280;39844;52.496;13.482;2024-03-08T11:02:32;101852.75;;;6.58;56.48
53932;BME280;39844;52.496;13.482;2024-03-08T11:04:57;101856.41;;;6.65;55.28
53932;BME280;39844;52.496;13.482;2024-03-08T11:07:22;101842.56;;;6.66;55.39
53932;BME280;39844;52.496;13.482;2024-03-08T11:09:48;101844.41;;;6.70;54.85
53932;BME280;39844;52.496;13.482;2024-03-08T11:12:27;101837.59;;;6.75;53.94
53932;BME280;39844;52.496;13.482;2024-03-08T11:14:53;101824.66;;;6.79;54.76
53932;BME280;39844;52.496;13.482;2024-03-08T11:19:55;101819.56;;;6.84;54.04
53932;BME280;39844;52.496;13.482;2024-03-08T11:22:22;101824.16;;;6.91;53.78
53932;BME280;39844;52.496;13.482;2024-03-08T11:24:48;101816.44;;;6.95;53.35
53932;BME280;39844;52.496;13.482;2024-03-08T11:27:15;101806.22;;;7.03;53.83
53932;BME280;39844;52.496;13.482;2024-03-08T11:29:40;101799.47;;;7.11;52.47
53932;BME280;39844;52.496;13.482;2024-03-08T11:32:09;101800.59;;;7.19;53.33
53932;BME280;39844;52.496;13.482;2024-03-08T11:34:35;101790.19;;;7.22;52.25
53932;BME280;39844;52.496;13.482;2024-03-08T11:37:03;101793.75;;;7.24;52.98
53932;BME280;39844;52.496;13.482;2024-03-08T11:39:29;101791.97;;;7.23;53.04
53932;BME280;39844;52.496;13.482;2024-03-08T11:41:55;101788.59;;;7.27;53.01
53932;BME280;39844;52.496;13.482;2024-03-08T11:44:20;101783.53;;;7.33;52.54
53932;BME280;39844;52.496;13.482;2024-03-08T11:46:45;101778.41;;;7.36;51.60
53932;BME280;39844;52.496;13.482;2024-03-08T11:49:10;101780.22;;;7.40;52.10
53932;BME280;39844;52.496;13.482;2024-03-08T11:51:36;101780.41;;;7.46;52.70
53932;BME280;39844;52.496;13.482;2024-03-08T11:54:01;101775.25;;;7.49;51.48
53932;BME280;39844;52.496;13.482;2024-03-08T11:56:27;101779.81;;;7.58;52.37
53932;BME280;39844;52.496;13.482;2024-03-08T11:58:54;101776.63;;;7.70;51.56
53932;BME280;39844;52.496;13.482;2024-03-08T12:01:19;101774.41;;;7.86;52.21
53932;BME280;39844;52.496;13.482;2024-03-08T12:03:52;101775.91;;;8.11;51.42
53932;BME280;39844;52.496;13.482;2024-03-08T12:06:18;101774.00;;;8.41;50.77
53932;BME280;39844;52.496;13.482;2024-03-08T12:08:43;101769.56;;;8.80;51.49
53932;BME280;39844;52.496;13.482;2024-03-08T12:11:08;101765.03;;;9.17;51.02
53932;BME280;39844;52.496;13.482;2024-03-08T12:13:34;101758.94;;;9.67;50.10
53932;BME280;39844;52.496;13.482;2024-03-08T12:16:03;101752.41;;;9.96;47.47
53932;BME280;39844;52.496;13.482;2024-03-08T12:18:28;101755.50;;;10.27;46.62
53932;BME280;39844;52.496;13.482;2024-03-08T12:21:06;101741.19;;;10.69;46.32
53932;BME280;39844;52.496;13.482;2024-03-08T12:23:32;101743.22;;;10.96;45.22
53932;BME280;39844;52.496;13.482;2024-03-08T12:25:57;101749.53;;;11.10;43.61
53932;BME280;39844;52.496;13.482;2024-03-08T12:28:23;101737.25;;;11.09;42.97
53932;BME280;39844;52.496;13.482;2024-03-08T12:30:50;101731.16;;;11.13;42.44
53932;BME280;39844;52.496;13.482;2024-03-08T12:33:15;101720.69;;;11.19;44.28
53932;BME280;39844;52.496;13.482;2024-03-08T12:35:41;101727.78;;;11.29;43.54
53932;BME280;39844;52.496;13.482;2024-03-08T12:38:06;101720.94;;;11.47;43.35
53932;BME280;39844;52.496;13.482;2024-03-08T12:40:33;101721.88;;;11.53;41.72
53932;BME280;39844;52.496;13.482;2024-03-08T12:42:59;101712.28;;;11.60;42.70
53932;BME280;39844;52.496;13.482;2024-03-08T12:45:24;101714.94;;;11.63;41.59